Arena, North Dakota
Current Conditions -  °F | °C
As of 2:52 PM on Saturday 22 Nov 2014 (Local Time) from KBIS Reporting Station
Overcast Overcast  
Wind Chill: 39°   Ceiling: 9500
Heat Index: 43°   Visibility: 10mi
Dew Point: 30°   Wind: 7mph
Humidity: 60%   Direction: 210°SSW
Pressure: 29.35"   Gusts: NA
Location:  47.1519°N, 100.332°W
Report Text: KBIS 222052Z AUTO 21006KT 10SM OVC095 06/M01 A2935 RMK AO2 SLP953 T00611011 56028
Loading
Personal Weather Stations






























Interactive Weather Map New forecast layout! Learn more

10-Day Weather Forecast

Advertisements
Track Severe Weather on mobile